sensor_id;sensor_type;location;lat;lon;timestamp;temperature;humidity
48575;DHT22;34352;51.084;3.712;2022-07-29T00:02:12;20.00;1.00
48575;DHT22;34352;51.084;3.712;2022-07-29T00:04:37;20.00;1.00
48575;DHT22;34352;51.084;3.712;2022-07-29T00:07:04;20.00;1.00
48575;DHT22;34352;51.084;3.712;2022-07-29T00:09:30;20.00;1.00
48575;DHT22;34352;51.084;3.712;2022-07-29T00:11:59;20.00;1.00
48575;DHT22;34352;51.084;3.712;2022-07-29T00:14:25;20.00;1.00
48575;DHT22;34352;51.084;3.712;2022-07-29T00:16:51;19.90;1.00
48575;DHT22;34352;51.084;3.712;2022-07-29T00:19:17;19.80;1.00
48575;DHT22;34352;51.084;3.712;2022-07-29T00:21:42;19.80;1.00
48575;DHT22;34352;51.084;3.712;2022-07-29T00:24:08;19.70;1.00
48575;DHT22;34352;51.084;3.712;2022-07-29T00:26:34;19.60;1.00
48575;DHT22;34352;51.084;3.712;2022-07-29T00:29:02;19.50;1.00
48575;DHT22;34352;51.084;3.712;2022-07-29T00:31:28;19.50;1.00
48575;DHT22;34352;51.084;3.712;2022-07-29T00:33:54;19.40;1.00
48575;DHT22;34352;51.084;3.712;2022-07-29T00:36:20;19.40;1.00
48575;DHT22;34352;51.084;3.712;2022-07-29T00:38:49;19.30;1.00
48575;DHT22;34352;51.084;3.712;2022-07-29T00:41:15;19.20;1.00
48575;DHT22;34352;51.084;3.712;2022-07-29T00:43:42;19.10;1.00
48575;DHT22;34352;51.084;3.712;2022-07-29T00:46:08;19.00;1.00
48575;DHT22;34352;51.084;3.712;2022-07-29T00:48:33;18.90;1.00
48575;DHT22;34352;51.084;3.712;2022-07-29T00:51:01;18.90;1.00
48575;DHT22;34352;51.084;3.712;2022-07-29T00:53:27;18.90;1.00
48575;DHT22;34352;51.084;3.712;2022-07-29T00:55:57;18.90;1.00
48575;DHT22;34352;51.084;3.712;2022-07-29T00:58:24;18.80;1.00
48575;DHT22;34352;51.084;3.712;2022-07-29T01:00:52;18.80;1.00
48575;DHT22;34352;51.084;3.712;2022-07-29T01:03:18;18.80;1.00
48575;DHT22;34352;51.084;3.712;2022-07-29T01:05:44;18.80;1.00
48575;DHT22;34352;51.084;3.712;2022-07-29T01:08:12;18.70;1.00
48575;DHT22;34352;51.084;3.712;2022-07-29T01:10:39;18.60;1.00
48575;DHT22;34352;51.084;3.712;2022-07-29T01:13:06;18.80;1.00
48575;DHT22;34352;51.084;3.712;2022-07-29T01:15:34;18.80;1.00
48575;DHT22;34352;51.084;3.712;2022-07-29T01:18:05;18.80;1.00
48575;DHT22;34352;51.084;3.712;2022-07-29T01:29:02;18.80;1.00
48575;DHT22;34352;51.084;3.712;2022-07-29T01:34:07;18.50;1.00
48575;DHT22;34352;51.084;3.712;2022-07-29T01:36:37;18.40;1.00
48575;DHT22;34352;51.084;3.712;2022-07-29T01:41:34;18.30;1.00
48575;DHT22;34352;51.084;3.712;2022-07-29T01:44:13;18.30;1.00
48575;DHT22;34352;51.084;3.712;2022-07-29T01:46:46;18.10;1.00
48575;DHT22;34352;51.084;3.712;2022-07-29T01:49:17;18.00;1.00
48575;DHT22;34352;51.084;3.712;2022-07-29T01:51:54;17.90;1.00
48575;DHT22;34352;51.084;3.712;2022-07-29T01:54:29;17.90;1.00
48575;DHT22;34352;51.084;3.712;2022-07-29T01:56:56;17.80;1.00
48575;DHT22;34352;51.084;3.712;2022-07-29T01:59:25;17.80;1.00
48575;DHT22;34352;51.084;3.712;2022-07-29T02:01:54;17.70;1.00
48575;DHT22;34352;51.084;3.712;2022-07-29T02:04:20;17.70;1.00
48575;DHT22;34352;51.084;3.712;2022-07-29T02:06:50;17.80;1.00
48575;DHT22;34352;51.084;3.712;2022-07-29T02:09:17;17.50;1.00
48575;DHT22;34352;51.084;3.712;2022-07-29T02:11:48;17.30;1.00
48575;DHT22;34352;51.084;3.712;2022-07-29T02:14:17;17.30;1.00
48575;DHT22;34352;51.084;3.712;2022-07-29T02:16:44;17.30;1.00
48575;DHT22;34352;51.084;3.712;2022-07-29T02:19:12;17.40;1.00
48575;DHT22;34352;51.084;3.712;2022-07-29T02:21:38;17.10;1.00
48575;DHT22;34352;51.084;3.712;2022-07-29T02:24:06;17.40;1.00
48575;DHT22;34352;51.084;3.712;2022-07-29T02:26:33;17.00;1.00
48575;DHT22;34352;51.084;3.712;2022-07-29T02:29:00;17.00;1.00
48575;DHT22;34352;51.084;3.712;2022-07-29T02:31:30;16.90;1.00
48575;DHT22;34352;51.084;3.712;2022-07-29T02:33:57;16.90;1.00
48575;DHT22;34352;51.084;3.712;2022-07-29T02:36:25;16.90;1.00
48575;DHT22;34352;51.084;3.712;2022-07-29T02:38:52;16.80;1.00
48575;DHT22;34352;51.084;3.712;2022-07-29T02:41:43;16.70;1.00
48575;DHT22;34352;51.084;3.712;2022-07-29T02:44:12;16.70;1.00
48575;DHT22;34352;51.084;3.712;2022-07-29T02:46:52;17.50;1.00
48575;DHT22;34352;51.084;3.712;2022-07-29T02:49:36;16.60;1.00
48575;DHT22;34352;51.084;3.712;2022-07-29T02:54:39;16.70;1.00
48575;DHT22;34352;51.084;3.712;2022-07-29T02:57:48;16.90;1.00
48575;DHT22;34352;51.084;3.712;2022-07-29T03:00:15;16.50;1.00
48575;DHT22;34352;51.084;3.712;2022-07-29T03:02:45;16.50;1.00
48575;DHT22;34352;51.084;3.712;2022-07-29T03:05:16;16.40;1.00
48575;DHT22;34352;51.084;3.712;2022-07-29T03:07:47;16.40;1.00
48575;DHT22;34352;51.084;3.712;2022-07-29T03:10:14;16.30;1.00
48575;DHT22;34352;51.084;3.712;2022-07-29T03:12:41;16.20;1.00
48575;DHT22;34352;51.084;3.712;2022-07-29T03:15:07;16.20;1.00
48575;DHT22;34352;51.084;3.712;2022-07-29T03:17:34;16.20;1.00
48575;DHT22;34352;51.084;3.712;2022-07-29T03:19:59;16.20;1.00
48575;DHT22;34352;51.084;3.712;2022-07-29T03:22:26;16.10;1.00
48575;DHT22;34352;51.084;3.712;2022-07-29T03:24:52;16.00;1.00
48575;DHT22;34352;51.084;3.712;2022-07-29T03:27:17;16.00;1.00
48575;DHT22;34352;51.084;3.712;2022-07-29T03:29:43;16.00;1.00
48575;DHT22;34352;51.084;3.712;2022-07-29T03:32:09;15.90;1.00
48575;DHT22;34352;51.084;3.712;2022-07-29T03:34:36;15.90;1.00
48575;DHT22;34352;51.084;3.712;2022-07-29T03:37:02;15.90;1.00
48575;DHT22;34352;51.084;3.712;2022-07-29T03:39:31;15.90;1.00
48575;DHT22;34352;51.084;3.712;2022-07-29T03:41:59;16.30;1.00
48575;DHT22;34352;51.084;3.712;2022-07-29T03:44:27;15.90;1.00
48575;DHT22;34352;51.084;3.712;2022-07-29T03:46:55;16.00;1.00
48575;DHT22;34352;51.084;3.712;2022-07-29T03:49:23;15.80;1.00
48575;DHT22;34352;51.084;3.712;2022-07-29T03:51:50;15.80;1.00
48575;DHT22;34352;51.084;3.712;2022-07-29T03:54:16;15.70;1.00
48575;DHT22;34352;51.084;3.712;2022-07-29T03:56:43;15.70;1.00
48575;DHT22;34352;51.084;3.712;2022-07-29T03:59:13;15.70;1.00
48575;DHT22;34352;51.084;3.712;2022-07-29T04:01:39;15.70;1.00
48575;DHT22;34352;51.084;3.712;2022-07-29T04:04:05;15.60;1.00
48575;DHT22;34352;51.084;3.712;2022-07-29T04:06:39;15.60;1.00
48575;DHT22;34352;51.084;3.712;2022-07-29T04:09:05;15.60;1.00
48575;DHT22;34352;51.084;3.712;2022-07-29T04:11:30;15.50;1.00
48575;DHT22;34352;51.084;3.712;2022-07-29T04:13:56;15.50;1.00
48575;DHT22;34352;51.084;3.712;2022-07-29T04:16:22;15.50;1.00
48575;DHT22;34352;51.084;3.712;2022-07-29T04:18:47;15.60;1.00
48575;DHT22;34352;51.084;3.712;2022-07-29T04:21:13;15.50;1.00
48575;DHT22;34352;51.084;3.712;2022-07-29T04:23:38;15.50;1.00
48575;DHT22;34352;51.084;3.712;2022-07-29T04:26:04;15.70;1.00
48575;DHT22;34352;51.084;3.712;2022-07-29T04:28:30;15.50;1.00
48575;DHT22;34352;51.084;3.712;2022-07-29T04:30:55;16.40;1.00
48575;DHT22;34352;51.084;3.712;2022-07-29T04:33:21;15.50;1.00
48575;DHT22;34352;51.084;3.712;2022-07-29T04:35:46;15.50;1.00
48575;DHT22;34352;51.084;3.712;2022-07-29T04:38:12;15.60;1.00
48575;DHT22;34352;51.084;3.712;2022-07-29T04:40:38;15.60;1.00
48575;DHT22;34352;51.084;3.712;2022-07-29T04:43:03;16.50;1.00
48575;DHT22;34352;51.084;3.712;2022-07-29T04:45:29;15.70;1.00
48575;DHT22;34352;51.084;3.712;2022-07-29T04:47:55;15.70;1.00
48575;DHT22;34352;51.084;3.712;2022-07-29T04:50:21;15.80;1.00
48575;DHT22;34352;51.084;3.712;2022-07-29T04:52:47;15.80;1.00
48575;DHT22;34352;51.084;3.712;2022-07-29T04:55:13;15.90;1.00
48575;DHT22;34352;51.084;3.712;2022-07-29T04:57:40;16.00;1.00
48575;DHT22;34352;51.084;3.712;2022-07-29T05:00:06;16.90;1.00
48575;DHT22;34352;51.084;3.712;2022-07-29T05:02:32;16.40;1.00
48575;DHT22;34352;51.084;3.712;2022-07-29T05:04:58;16.90;1.00
48575;DHT22;34352;51.084;3.712;2022-07-29T05:07:23;17.40;1.00
48575;DHT22;34352;51.084;3.712;2022-07-29T05:09:49;17.80;1.00
48575;DHT22;34352;51.084;3.712;2022-07-29T05:12:15;18.30;1.00
48575;DHT22;34352;51.084;3.712;2022-07-29T05:14:40;18.90;1.00
48575;DHT22;34352;51.084;3.712;2022-07-29T05:17:06;19.50;1.00
48575;DHT22;34352;51.084;3.712;2022-07-29T05:19:32;20.00;1.00
48575;DHT22;34352;51.084;3.712;2022-07-29T05:21:57;20.60;1.00
48575;DHT22;34352;51.084;3.712;2022-07-29T05:24:23;21.10;1.00
48575;DHT22;34352;51.084;3.712;2022-07-29T05:26:48;21.60;1.00
48575;DHT22;34352;51.084;3.712;2022-07-29T05:29:14;22.10;1.00
48575;DHT22;34352;51.084;3.712;2022-07-29T05:31:40;22.50;1.00
48575;DHT22;34352;51.084;3.712;2022-07-29T05:34:05;23.00;1.00
48575;DHT22;34352;51.084;3.712;2022-07-29T05:36:31;23.30;1.00
48575;DHT22;34352;51.084;3.712;2022-07-29T05:38:57;23.80;1.00
48575;DHT22;34352;51.084;3.712;2022-07-29T05:41:23;24.10;1.00
48575;DHT22;34352;51.084;3.712;2022-07-29T05:43:48;24.60;1.00
48575;DHT22;34352;51.084;3.712;2022-07-29T05:46:14;25.00;1.00
48575;DHT22;34352;51.084;3.712;2022-07-29T05:48:40;25.30;1.00
48575;DHT22;34352;51.084;3.712;2022-07-29T05:51:06;25.70;1.00
48575;DHT22;34352;51.084;3.712;2022-07-29T05:53:31;26.00;1.00
48575;DHT22;34352;51.084;3.712;2022-07-29T05:55:57;26.30;1.00
48575;DHT22;34352;51.084;3.712;2022-07-29T05:58:24;26.60;1.00
48575;DHT22;34352;51.084;3.712;2022-07-29T06:00:50;27.00;1.00
48575;DHT22;34352;51.084;3.712;2022-07-29T06:03:15;27.30;1.00
48575;DHT22;34352;51.084;3.712;2022-07-29T06:05:41;27.20;1.00
48575;DHT22;34352;51.084;3.712;2022-07-29T06:08:06;27.60;1.00
48575;DHT22;34352;51.084;3.712;2022-07-29T06:10:34;27.90;1.00
48575;DHT22;34352;51.084;3.712;2022-07-29T06:13:00;28.10;1.00
48575;DHT22;34352;51.084;3.712;2022-07-29T06:15:25;28.40;1.00
48575;DHT22;34352;51.084;3.712;2022-07-29T06:17:51;28.70;1.00
48575;DHT22;34352;51.084;3.712;2022-07-29T06:20:19;28.80;1.00
48575;DHT22;34352;51.084;3.712;2022-07-29T06:22:44;29.10;1.00
48575;DHT22;34352;51.084;3.712;2022-07-29T06:25:10;29.20;1.00
48575;DHT22;34352;51.084;3.712;2022-07-29T06:27:37;29.60;1.00
48575;DHT22;34352;51.084;3.712;2022-07-29T06:30:03;29.70;1.00
48575;DHT22;34352;51.084;3.712;2022-07-29T06:32:32;30.10;1.00
48575;DHT22;34352;51.084;3.712;2022-07-29T06:34:57;30.40;1.00
48575;DHT22;34352;51.084;3.712;2022-07-29T06:37:23;30.40;1.00
48575;DHT22;34352;51.084;3.712;2022-07-29T06:39:49;29.90;1.00
48575;DHT22;34352;51.084;3.712;2022-07-29T06:42:34;29.80;1.00
48575;DHT22;34352;51.084;3.712;2022-07-29T06:45:00;30.00;1.00
48575;DHT22;34352;51.084;3.712;2022-07-29T06:47:25;30.40;1.00
48575;DHT22;34352;51.084;3.712;2022-07-29T06:49:51;30.00;1.00
48575;DHT22;34352;51.084;3.712;2022-07-29T06:52:17;29.40;1.00
48575;DHT22;34352;51.084;3.712;2022-07-29T06:54:42;29.70;1.00
48575;DHT22;34352;51.084;3.712;2022-07-29T06:57:14;30.20;1.00
48575;DHT22;34352;51.084;3.712;2022-07-29T06:59:40;30.90;1.00
48575;DHT22;34352;51.084;3.712;2022-07-29T07:02:06;31.40;1.00
48575;DHT22;34352;51.084;3.712;2022-07-29T07:04:32;31.80;1.00
48575;DHT22;34352;51.084;3.712;2022-07-29T07:06:58;32.10;1.00
48575;DHT22;34352;51.084;3.712;2022-07-29T07:09:25;32.60;1.00
48575;DHT22;34352;51.084;3.712;2022-07-29T07:11:50;32.70;1.00
48575;DHT22;34352;51.084;3.712;2022-07-29T07:14:16;32.40;1.00
48575;DHT22;34352;51.084;3.712;2022-07-29T07:16:42;33.00;1.00
48575;DHT22;34352;51.084;3.712;2022-07-29T07:19:07;33.10;1.00
48575;DHT22;34352;51.084;3.712;2022-07-29T07:21:33;33.20;1.00
48575;DHT22;34352;51.084;3.712;2022-07-29T07:23:59;33.20;1.00
48575;DHT22;34352;51.084;3.712;2022-07-29T07:26:26;33.30;1.00
48575;DHT22;34352;51.084;3.712;2022-07-29T07:28:52;33.80;1.00
48575;DHT22;34352;51.084;3.712;2022-07-29T07:31:18;33.80;1.00
48575;DHT22;34352;51.084;3.712;2022-07-29T07:33:44;33.60;1.00
48575;DHT22;34352;51.084;3.712;2022-07-29T07:36:10;33.80;1.00
48575;DHT22;34352;51.084;3.712;2022-07-29T07:38:35;34.20;1.00
48575;DHT22;34352;51.084;3.712;2022-07-29T07:41:01;34.20;1.00
48575;DHT22;34352;51.084;3.712;2022-07-29T07:43:28;34.30;1.00
48575;DHT22;34352;51.084;3.712;2022-07-29T07:45:54;34.30;1.00
48575;DHT22;34352;51.084;3.712;2022-07-29T07:48:19;34.50;1.00
48575;DHT22;34352;51.084;3.712;2022-07-29T07:50:45;34.20;1.00
48575;DHT22;34352;51.084;3.712;2022-07-29T07:53:11;34.50;1.00
48575;DHT22;34352;51.084;3.712;2022-07-29T07:55:43;34.70;1.00
48575;DHT22;34352;51.084;3.712;2022-07-29T07:58:09;34.70;1.00
48575;DHT22;34352;51.084;3.712;2022-07-29T08:00:36;35.20;1.00
48575;DHT22;34352;51.084;3.712;2022-07-29T08:03:01;35.70;1.00
48575;DHT22;34352;51.084;3.712;2022-07-29T08:05:27;36.00;1.00
48575;DHT22;34352;51.084;3.712;2022-07-29T08:07:53;36.20;1.00
48575;DHT22;34352;51.084;3.712;2022-07-29T08:10:19;35.80;1.00
48575;DHT22;34352;51.084;3.712;2022-07-29T08:13:05;35.90;1.00
48575;DHT22;34352;51.084;3.712;2022-07-29T08:15:31;36.20;1.00
48575;DHT22;34352;51.084;3.712;2022-07-29T08:17:57;36.00;1.00
48575;DHT22;34352;51.084;3.712;2022-07-29T08:20:22;36.10;1.00
48575;DHT22;34352;51.084;3.712;2022-07-29T08:22:48;35.90;1.00
48575;DHT22;34352;51.084;3.712;2022-07-29T08:25:14;36.10;1.00
48575;DHT22;34352;51.084;3.712;2022-07-29T08:27:40;36.10;1.00
48575;DHT22;34352;51.084;3.712;2022-07-29T08:30:06;36.30;1.00
48575;DHT22;34352;51.084;3.712;2022-07-29T08:32:33;36.40;1.00
48575;DHT22;34352;51.084;3.712;2022-07-29T08:34:58;36.70;1.00
48575;DHT22;34352;51.084;3.712;2022-07-29T08:37:25;36.80;1.00
48575;DHT22;34352;51.084;3.712;2022-07-29T08:39:52;36.40;1.00
48575;DHT22;34352;51.084;3.712;2022-07-29T08:42:18;36.70;1.00
48575;DHT22;34352;51.084;3.712;2022-07-29T08:44:44;36.70;1.00
48575;DHT22;34352;51.084;3.712;2022-07-29T08:47:13;36.90;1.00
48575;DHT22;34352;51.084;3.712;2022-07-29T08:49:39;37.00;1.00
48575;DHT22;34352;51.084;3.712;2022-07-29T08:52:06;36.60;1.00
48575;DHT22;34352;51.084;3.712;2022-07-29T08:54:32;36.80;1.00
48575;DHT22;34352;51.084;3.712;2022-07-29T08:56:58;37.30;1.00
48575;DHT22;34352;51.084;3.712;2022-07-29T08:59:27;37.20;1.00
48575;DHT22;34352;51.084;3.712;2022-07-29T09:01:54;37.20;1.00
48575;DHT22;34352;51.084;3.712;2022-07-29T09:04:21;37.60;1.00
48575;DHT22;34352;51.084;3.712;2022-07-29T09:06:49;36.70;1.00
48575;DHT22;34352;51.084;3.712;2022-07-29T09:09:16;37.30;1.00
48575;DHT22;34352;51.084;3.712;2022-07-29T09:11:43;37.30;1.00
48575;DHT22;34352;51.084;3.712;2022-07-29T09:14:11;36.50;1.00
48575;DHT22;34352;51.084;3.712;2022-07-29T09:16:56;36.60;1.00
48575;DHT22;34352;51.084;3.712;2022-07-29T09:19:26;36.80;1.00
48575;DHT22;34352;51.084;3.712;2022-07-29T09:21:52;37.10;1.00
48575;DHT22;34352;51.084;3.712;2022-07-29T09:24:39;37.40;1.00
48575;DHT22;34352;51.084;3.712;2022-07-29T09:27:33;38.10;1.00
48575;DHT22;34352;51.084;3.712;2022-07-29T09:30:05;38.60;1.00
48575;DHT22;34352;51.084;3.712;2022-07-29T09:32:32;38.50;1.00
48575;DHT22;34352;51.084;3.712;2022-07-29T09:35:18;38.70;1.00
48575;DHT22;34352;51.084;3.712;2022-07-29T09:37:44;39.10;1.00
48575;DHT22;34352;51.084;3.712;2022-07-29T09:40:15;39.20;1.00
48575;DHT22;34352;51.084;3.712;2022-07-29T09:42:42;39.50;1.00
48575;DHT22;34352;51.084;3.712;2022-07-29T09:45:09;39.90;1.00
48575;DHT22;34352;51.084;3.712;2022-07-29T09:47:42;39.90;1.00
48575;DHT22;34352;51.084;3.712;2022-07-29T09:50:08;40.00;1.00
48575;DHT22;34352;51.084;3.712;2022-07-29T09:52:45;40.20;1.00
48575;DHT22;34352;51.084;3.712;2022-07-29T09:55:11;40.40;1.00
48575;DHT22;34352;51.084;3.712;2022-07-29T09:57:37;40.20;1.00
48575;DHT22;34352;51.084;3.712;2022-07-29T10:02:33;40.20;1.00
48575;DHT22;34352;51.084;3.712;2022-07-29T10:05:01;40.30;1.00
48575;DHT22;34352;51.084;3.712;2022-07-29T10:07:52;40.60;1.00
48575;DHT22;34352;51.084;3.712;2022-07-29T10:10:28;40.50;1.00
48575;DHT22;34352;51.084;3.712;2022-07-29T10:12:55;40.40;1.00
48575;DHT22;34352;51.084;3.712;2022-07-29T10:15:23;40.70;1.00
48575;DHT22;34352;51.084;3.712;2022-07-29T10:17:51;40.80;1.00
48575;DHT22;34352;51.084;3.712;2022-07-29T10:20:19;40.90;1.00
48575;DHT22;34352;51.084;3.712;2022-07-29T10:22:47;40.80;1.00
48575;DHT22;34352;51.084;3.712;2022-07-29T10:25:14;41.00;1.00
48575;DHT22;34352;51.084;3.712;2022-07-29T10:27:40;40.80;1.00
48575;DHT22;34352;51.084;3.712;2022-07-29T10:30:06;40.90;1.00
48575;DHT22;34352;51.084;3.712;2022-07-29T10:32:56;40.70;1.00
48575;DHT22;34352;51.084;3.712;2022-07-29T10:41:21;39.40;1.00
48575;DHT22;34352;51.084;3.712;2022-07-29T10:44:04;40.50;1.00
48575;DHT22;34352;51.084;3.712;2022-07-29T10:46:38;41.60;1.00
48575;DHT22;34352;51.084;3.712;2022-07-29T10:49:05;41.60;1.00
48575;DHT22;34352;51.084;3.712;2022-07-29T10:54:18;42.10;1.00
48575;DHT22;34352;51.084;3.712;2022-07-29T10:56:44;41.80;1.00
48575;DHT22;34352;51.084;3.712;2022-07-29T11:01:50;41.60;1.00
48575;DHT22;34352;51.084;3.712;2022-07-29T11:07:11;40.20;1.00
48575;DHT22;34352;51.084;3.712;2022-07-29T11:09:40;40.80;1.00
48575;DHT22;34352;51.084;3.712;2022-07-29T11:15:08;41.50;1.00
48575;DHT22;34352;51.084;3.712;2022-07-29T11:18:07;42.10;1.00
48575;DHT22;34352;51.084;3.712;2022-07-29T11:20:44;42.80;1.00
48575;DHT22;34352;51.084;3.712;2022-07-29T11:23:27;42.50;1.00
48575;DHT22;34352;51.084;3.712;2022-07-29T11:28:55;40.50;1.00
48575;DHT22;34352;51.084;3.712;2022-07-29T11:31:38;38.90;1.00
48575;DHT22;34352;51.084;3.712;2022-07-29T11:39:47;37.90;1.00
48575;DHT22;34352;51.084;3.712;2022-07-29T11:47:29;38.20;1.00
48575;DHT22;34352;51.084;3.712;2022-07-29T11:49:59;38.10;1.00
48575;DHT22;34352;51.084;3.712;2022-07-29T11:52:33;38.50;1.00
48575;DHT22;34352;51.084;3.712;2022-07-29T11:55:02;39.40;1.00
48575;DHT22;34352;51.084;3.712;2022-07-29T11:57:29;39.50;1.00
48575;DHT22;34352;51.084;3.712;2022-07-29T11:59:55;39.90;1.00
48575;DHT22;34352;51.084;3.712;2022-07-29T12:02:23;39.60;1.00
48575;DHT22;34352;51.084;3.712;2022-07-29T12:04:51;40.70;1.00
48575;DHT22;34352;51.084;3.712;2022-07-29T12:07:18;40.20;1.00
48575;DHT22;34352;51.084;3.712;2022-07-29T12:09:51;40.80;1.00
48575;DHT22;34352;51.084;3.712;2022-07-29T12:12:17;40.80;1.00
48575;DHT22;34352;51.084;3.712;2022-07-29T12:14:43;41.60;1.00
48575;DHT22;34352;51.084;3.712;2022-07-29T12:17:31;41.00;1.00
48575;DHT22;34352;51.084;3.712;2022-07-29T12:20:02;41.00;1.00
48575;DHT22;34352;51.084;3.712;2022-07-29T12:22:31;41.30;1.00
48575;DHT22;34352;51.084;3.712;2022-07-29T12:25:20;42.20;1.00
48575;DHT22;34352;51.084;3.712;2022-07-29T12:27:46;42.50;1.00
48575;DHT22;34352;51.084;3.712;2022-07-29T12:30:16;42.30;1.00
48575;DHT22;34352;51.084;3.712;2022-07-29T12:32:46;41.80;1.00
48575;DHT22;34352;51.084;3.712;2022-07-29T12:35:22;42.00;1.00
48575;DHT22;34352;51.084;3.712;2022-07-29T12:37:48;42.50;1.00
48575;DHT22;34352;51.084;3.712;2022-07-29T12:40:17;42.50;1.00
48575;DHT22;34352;51.084;3.712;2022-07-29T12:43:09;42.30;1.00
48575;DHT22;34352;51.084;3.712;2022-07-29T12:45:37;40.70;1.00
48575;DHT22;34352;51.084;3.712;2022-07-29T12:48:04;39.70;1.00
48575;DHT22;34352;51.084;3.712;2022-07-29T12:50:29;39.30;1.00
48575;DHT22;34352;51.084;3.712;2022-07-29T12:53:08;38.30;1.00
48575;DHT22;34352;51.084;3.712;2022-07-29T12:55:46;37.00;1.00
48575;DHT22;34352;51.084;3.712;2022-07-29T12:58:37;35.50;1.00
48575;DHT22;34352;51.084;3.712;2022-07-29T13:01:09;36.20;1.00
48575;DHT22;34352;51.084;3.712;2022-07-29T13:03:53;35.50;1.00
48575;DHT22;34352;51.084;3.712;2022-07-29T13:06:44;34.80;1.00
48575;DHT22;34352;51.084;3.712;2022-07-29T13:09:12;35.00;1.00
48575;DHT22;34352;51.084;3.712;2022-07-29T13:11:45;36.10;1.00
48575;DHT22;34352;51.084;3.712;2022-07-29T13:14:34;37.10;1.00
48575;DHT22;34352;51.084;3.712;2022-07-29T13:19:40;37.20;1.00
48575;DHT22;34352;51.084;3.712;2022-07-29T13:22:07;36.90;1.00
48575;DHT22;34352;51.084;3.712;2022-07-29T13:24:44;37.00;1.00
48575;DHT22;34352;51.084;3.712;2022-07-29T13:27:11;36.90;1.00
48575;DHT22;34352;51.084;3.712;2022-07-29T13:29:36;37.20;1.00
48575;DHT22;34352;51.084;3.712;2022-07-29T13:32:05;37.60;1.00
48575;DHT22;34352;51.084;3.712;2022-07-29T13:34:31;38.10;1.00
48575;DHT22;34352;51.084;3.712;2022-07-29T13:36:57;38.10;1.00
48575;DHT22;34352;51.084;3.712;2022-07-29T13:39:23;37.40;1.00
48575;DHT22;34352;51.084;3.712;2022-07-29T13:41:49;36.90;1.00
48575;DHT22;34352;51.084;3.712;2022-07-29T13:44:14;37.10;1.00
48575;DHT22;34352;51.084;3.712;2022-07-29T13:46:40;37.10;1.00
48575;DHT22;34352;51.084;3.712;2022-07-29T13:49:06;37.10;1.00
48575;DHT22;34352;51.084;3.712;2022-07-29T13:51:31;36.30;1.00
48575;DHT22;34352;51.084;3.712;2022-07-29T13:53:57;36.60;1.00
48575;DHT22;34352;51.084;3.712;2022-07-29T13:56:23;36.60;1.00
48575;DHT22;34352;51.084;3.712;2022-07-29T13:58:48;36.50;1.00
48575;DHT22;34352;51.084;3.712;2022-07-29T14:01:14;36.30;1.00
48575;DHT22;34352;51.084;3.712;2022-07-29T14:03:40;35.70;1.00
48575;DHT22;34352;51.084;3.712;2022-07-29T14:06:09;35.40;1.00
48575;DHT22;34352;51.084;3.712;2022-07-29T14:08:36;35.50;1.00
48575;DHT22;34352;51.084;3.712;2022-07-29T14:11:03;35.90;1.00
48575;DHT22;34352;51.084;3.712;2022-07-29T14:13:28;36.10;1.00
48575;DHT22;34352;51.084;3.712;2022-07-29T14:15:54;36.60;1.00
48575;DHT22;34352;51.084;3.712;2022-07-29T14:18:20;36.60;1.00
48575;DHT22;34352;51.084;3.712;2022-07-29T14:20:45;36.70;1.00
48575;DHT22;34352;51.084;3.712;2022-07-29T14:23:11;35.90;1.00
48575;DHT22;34352;51.084;3.712;2022-07-29T14:25:36;35.30;1.00
48575;DHT22;34352;51.084;3.712;2022-07-29T14:28:02;35.40;1.00
48575;DHT22;34352;51.084;3.712;2022-07-29T14:30:28;34.80;1.00
48575;DHT22;34352;51.084;3.712;2022-07-29T14:32:53;34.30;1.00
48575;DHT22;34352;51.084;3.712;2022-07-29T14:35:19;34.00;1.00
48575;DHT22;34352;51.084;3.712;2022-07-29T14:37:45;33.70;1.00
48575;DHT22;34352;51.084;3.712;2022-07-29T14:40:11;32.90;1.00
48575;DHT22;34352;51.084;3.712;2022-07-29T14:42:37;32.30;1.00
48575;DHT22;34352;51.084;3.712;2022-07-29T14:45:05;31.50;1.00
48575;DHT22;34352;51.084;3.712;2022-07-29T14:47:31;31.40;1.00
48575;DHT22;34352;51.084;3.712;2022-07-29T14:49:56;31.50;1.00
48575;DHT22;34352;51.084;3.712;2022-07-29T14:52:22;31.70;1.00
48575;DHT22;34352;51.084;3.712;2022-07-29T14:54:48;31.70;1.00
48575;DHT22;34352;51.084;3.712;2022-07-29T14:57:13;31.50;1.00
48575;DHT22;34352;51.084;3.712;2022-07-29T14:59:39;31.30;1.00
48575;DHT22;34352;51.084;3.712;2022-07-29T15:02:04;31.00;1.00
48575;DHT22;34352;51.084;3.712;2022-07-29T15:04:30;31.10;1.00
48575;DHT22;34352;51.084;3.712;2022-07-29T15:06:56;31.20;1.00
48575;DHT22;34352;51.084;3.712;2022-07-29T15:09:21;31.40;1.00
48575;DHT22;34352;51.084;3.712;2022-07-29T15:11:47;31.40;1.00
48575;DHT22;34352;51.084;3.712;2022-07-29T15:14:13;31.40;1.00
48575;DHT22;34352;51.084;3.712;2022-07-29T15:16:39;31.20;1.00
48575;DHT22;34352;51.084;3.712;2022-07-29T15:19:05;31.30;1.00
48575;DHT22;34352;51.084;3.712;2022-07-29T15:21:31;31.40;1.00
48575;DHT22;34352;51.084;3.712;2022-07-29T15:23:57;31.20;1.00
48575;DHT22;34352;51.084;3.712;2022-07-29T15:26:23;31.10;1.00
48575;DHT22;34352;51.084;3.712;2022-07-29T15:28:48;30.70;1.00
48575;DHT22;34352;51.084;3.712;2022-07-29T15:31:17;30.50;1.00
48575;DHT22;34352;51.084;3.712;2022-07-29T15:33:45;30.30;1.00
48575;DHT22;34352;51.084;3.712;2022-07-29T15:36:11;30.30;1.00
48575;DHT22;34352;51.084;3.712;2022-07-29T15:38:38;30.30;1.00
48575;DHT22;34352;51.084;3.712;2022-07-29T15:41:06;30.10;1.00
48575;DHT22;34352;51.084;3.712;2022-07-29T15:43:32;29.90;1.00
48575;DHT22;34352;51.084;3.712;2022-07-29T15:46:00;29.90;1.00
48575;DHT22;34352;51.084;3.712;2022-07-29T15:48:44;29.90;1.00
48575;DHT22;34352;51.084;3.712;2022-07-29T15:51:10;29.90;1.00
48575;DHT22;34352;51.084;3.712;2022-07-29T15:53:35;29.70;1.00
48575;DHT22;34352;51.084;3.712;2022-07-29T15:56:02;29.40;1.00
48575;DHT22;34352;51.084;3.712;2022-07-29T15:58:29;29.40;1.00
48575;DHT22;34352;51.084;3.712;2022-07-29T16:00:55;29.30;1.00
48575;DHT22;34352;51.084;3.712;2022-07-29T16:03:21;29.40;1.00
48575;DHT22;34352;51.084;3.712;2022-07-29T16:05:47;29.50;1.00
48575;DHT22;34352;51.084;3.712;2022-07-29T16:08:13;29.40;1.00
48575;DHT22;34352;51.084;3.712;2022-07-29T16:10:39;29.30;1.00
48575;DHT22;34352;51.084;3.712;2022-07-29T16:13:05;29.40;1.00
48575;DHT22;34352;51.084;3.712;2022-07-29T16:15:31;29.20;1.00
48575;DHT22;34352;51.084;3.712;2022-07-29T16:17:57;29.10;1.00
48575;DHT22;34352;51.084;3.712;2022-07-29T16:20:22;29.00;1.00
48575;DHT22;34352;51.084;3.712;2022-07-29T16:22:48;28.80;1.00
48575;DHT22;34352;51.084;3.712;2022-07-29T16:25:14;28.60;1.00
48575;DHT22;34352;51.084;3.712;2022-07-29T16:27:39;28.70;1.00
48575;DHT22;34352;51.084;3.712;2022-07-29T16:30:06;28.50;1.00
48575;DHT22;34352;51.084;3.712;2022-07-29T16:32:34;28.50;1.00
48575;DHT22;34352;51.084;3.712;2022-07-29T16:35:00;28.40;1.00
48575;DHT22;34352;51.084;3.712;2022-07-29T16:37:29;28.40;1.00
48575;DHT22;34352;51.084;3.712;2022-07-29T16:40:00;28.20;1.00
48575;DHT22;34352;51.084;3.712;2022-07-29T16:42:26;28.20;1.00
48575;DHT22;34352;51.084;3.712;2022-07-29T16:44:51;28.20;1.00